sensor_id;sensor_type;location;lat;lon;timestamp;P1;durP1;ratioP1;P2;durP2;ratioP2
32038;SDS011;18549;42.286;22.688;2023-04-03T00:02:09;3.10;;;2.10;;
32038;SDS011;18549;42.286;22.688;2023-04-03T00:04:35;3.47;;;2.23;;
32038;SDS011;18549;42.286;22.688;2023-04-03T00:07:02;6.47;;;4.10;;
32038;SDS011;18549;42.286;22.688;2023-04-03T00:09:29;3.77;;;2.70;;
32038;SDS011;18549;42.286;22.688;2023-04-03T00:11:57;4.63;;;2.60;;
32038;SDS011;18549;42.286;22.688;2023-04-03T00:14:25;4.23;;;2.77;;
32038;SDS011;18549;42.286;22.688;2023-04-03T00:16:52;3.57;;;2.20;;
32038;SDS011;18549;42.286;22.688;2023-04-03T00:19:19;4.27;;;2.60;;
32038;SDS011;18549;42.286;22.688;2023-04-03T00:21:46;5.57;;;2.90;;
32038;SDS011;18549;42.286;22.688;2023-04-03T00:24:13;5.93;;;3.30;;
32038;SDS011;18549;42.286;22.688;2023-04-03T00:26:39;7.50;;;4.10;;
32038;SDS011;18549;42.286;22.688;2023-04-03T00:29:08;9.50;;;4.10;;
32038;SDS011;18549;42.286;22.688;2023-04-03T00:31:34;15.70;;;6.57;;
32038;SDS011;18549;42.286;22.688;2023-04-03T00:34:01;11.23;;;5.80;;
32038;SDS011;18549;42.286;22.688;2023-04-03T00:36:28;10.13;;;6.37;;
32038;SDS011;18549;42.286;22.688;2023-04-03T00:38:55;11.50;;;5.40;;
32038;SDS011;18549;42.286;22.688;2023-04-03T00:41:22;11.23;;;6.63;;
32038;SDS011;18549;42.286;22.688;2023-04-03T00:43:49;11.53;;;6.33;;
32038;SDS011;18549;42.286;22.688;2023-04-03T00:46:17;12.57;;;6.67;;
32038;SDS011;18549;42.286;22.688;2023-04-03T00:48:45;14.83;;;6.60;;
32038;SDS011;18549;42.286;22.688;2023-04-03T00:51:13;9.47;;;5.93;;
32038;SDS011;18549;42.286;22.688;2023-04-03T00:53:43;9.33;;;5.73;;
32038;SDS011;18549;42.286;22.688;2023-04-03T00:56:12;10.40;;;6.40;;
32038;SDS011;18549;42.286;22.688;2023-04-03T00:58:42;10.23;;;6.10;;
32038;SDS011;18549;42.286;22.688;2023-04-03T01:01:16;16.13;;;5.93;;
32038;SDS011;18549;42.286;22.688;2023-04-03T01:03:48;10.10;;;6.47;;
32038;SDS011;18549;42.286;22.688;2023-04-03T01:06:16;10.47;;;7.00;;
32038;SDS011;18549;42.286;22.688;2023-04-03T01:08:46;13.03;;;7.03;;
32038;SDS011;18549;42.286;22.688;2023-04-03T01:11:16;12.83;;;6.30;;
32038;SDS011;18549;42.286;22.688;2023-04-03T01:13:43;8.87;;;6.13;;
32038;SDS011;18549;42.286;22.688;2023-04-03T01:16:10;11.33;;;6.30;;
32038;SDS011;18549;42.286;22.688;2023-04-03T01:18:39;6.57;;;4.67;;
32038;SDS011;18549;42.286;22.688;2023-04-03T01:24:28;5.57;;;3.93;;
32038;SDS011;18549;42.286;22.688;2023-04-03T01:26:59;6.03;;;4.20;;
32038;SDS011;18549;42.286;22.688;2023-04-03T01:29:30;6.93;;;4.53;;
32038;SDS011;18549;42.286;22.688;2023-04-03T01:31:59;5.27;;;3.43;;
32038;SDS011;18549;42.286;22.688;2023-04-03T01:34:27;4.20;;;3.10;;
32038;SDS011;18549;42.286;22.688;2023-04-03T01:36:55;6.23;;;3.60;;
32038;SDS011;18549;42.286;22.688;2023-04-03T01:39:22;33.50;;;18.43;;
32038;SDS011;18549;42.286;22.688;2023-04-03T01:41:49;30.87;;;15.07;;
32038;SDS011;18549;42.286;22.688;2023-04-03T01:44:16;8.70;;;4.73;;
32038;SDS011;18549;42.286;22.688;2023-04-03T01:46:43;8.57;;;4.40;;
32038;SDS011;18549;42.286;22.688;2023-04-03T01:49:11;8.90;;;5.70;;
32038;SDS011;18549;42.286;22.688;2023-04-03T01:51:38;10.33;;;6.23;;
32038;SDS011;18549;42.286;22.688;2023-04-03T01:54:04;12.63;;;6.20;;
32038;SDS011;18549;42.286;22.688;2023-04-03T01:56:31;11.53;;;6.17;;
32038;SDS011;18549;42.286;22.688;2023-04-03T01:58:58;8.83;;;6.33;;
32038;SDS011;18549;42.286;22.688;2023-04-03T02:01:25;8.60;;;5.50;;
32038;SDS011;18549;42.286;22.688;2023-04-03T02:03:52;6.23;;;4.27;;
32038;SDS011;18549;42.286;22.688;2023-04-03T02:06:20;7.03;;;4.80;;
32038;SDS011;18549;42.286;22.688;2023-04-03T02:08:47;11.23;;;5.60;;
32038;SDS011;18549;42.286;22.688;2023-04-03T02:11:14;8.40;;;3.87;;
32038;SDS011;18549;42.286;22.688;2023-04-03T02:13:42;6.77;;;3.73;;
32038;SDS011;18549;42.286;22.688;2023-04-03T02:16:10;5.67;;;3.80;;
32038;SDS011;18549;42.286;22.688;2023-04-03T02:18:38;3.70;;;2.63;;
32038;SDS011;18549;42.286;22.688;2023-04-03T02:21:04;5.90;;;2.90;;
32038;SDS011;18549;42.286;22.688;2023-04-03T02:23:33;5.23;;;3.17;;
32038;SDS011;18549;42.286;22.688;2023-04-03T02:26:04;9.27;;;5.20;;
32038;SDS011;18549;42.286;22.688;2023-04-03T02:28:32;10.80;;;3.57;;
32038;SDS011;18549;42.286;22.688;2023-04-03T02:30:59;8.03;;;4.20;;
32038;SDS011;18549;42.286;22.688;2023-04-03T02:33:27;5.80;;;3.90;;
32038;SDS011;18549;42.286;22.688;2023-04-03T02:35:54;4.80;;;3.50;;
32038;SDS011;18549;42.286;22.688;2023-04-03T02:38:21;5.53;;;3.43;;
32038;SDS011;18549;42.286;22.688;2023-04-03T02:40:50;4.90;;;3.43;;
32038;SDS011;18549;42.286;22.688;2023-04-03T02:43:17;8.80;;;5.00;;
32038;SDS011;18549;42.286;22.688;2023-04-03T02:45:44;8.90;;;4.57;;
32038;SDS011;18549;42.286;22.688;2023-04-03T02:48:11;8.10;;;5.67;;
32038;SDS011;18549;42.286;22.688;2023-04-03T02:50:39;9.60;;;5.37;;
32038;SDS011;18549;42.286;22.688;2023-04-03T02:53:07;11.53;;;7.17;;
32038;SDS011;18549;42.286;22.688;2023-04-03T02:55:34;18.37;;;5.43;;
32038;SDS011;18549;42.286;22.688;2023-04-03T02:58:02;8.30;;;4.87;;
32038;SDS011;18549;42.286;22.688;2023-04-03T03:00:30;13.10;;;5.67;;
32038;SDS011;18549;42.286;22.688;2023-04-03T03:02:56;13.07;;;5.93;;
32038;SDS011;18549;42.286;22.688;2023-04-03T03:05:23;8.50;;;5.70;;
32038;SDS011;18549;42.286;22.688;2023-04-03T03:07:50;14.77;;;8.90;;
32038;SDS011;18549;42.286;22.688;2023-04-03T03:10:17;13.07;;;8.30;;
32038;SDS011;18549;42.286;22.688;2023-04-03T03:12:44;11.10;;;6.90;;
32038;SDS011;18549;42.286;22.688;2023-04-03T03:15:15;16.37;;;10.10;;
32038;SDS011;18549;42.286;22.688;2023-04-03T03:17:44;20.60;;;11.47;;
32038;SDS011;18549;42.286;22.688;2023-04-03T03:20:12;21.93;;;13.40;;
32038;SDS011;18549;42.286;22.688;2023-04-03T03:22:40;21.43;;;10.13;;
32038;SDS011;18549;42.286;22.688;2023-04-03T03:25:07;15.70;;;8.87;;
32038;SDS011;18549;42.286;22.688;2023-04-03T03:27:35;19.07;;;10.10;;
32038;SDS011;18549;42.286;22.688;2023-04-03T03:30:02;23.80;;;9.93;;
32038;SDS011;18549;42.286;22.688;2023-04-03T03:32:30;16.20;;;8.13;;
32038;SDS011;18549;42.286;22.688;2023-04-03T03:34:57;16.97;;;8.60;;
32038;SDS011;18549;42.286;22.688;2023-04-03T03:37:24;19.53;;;10.70;;
32038;SDS011;18549;42.286;22.688;2023-04-03T03:39:51;22.97;;;10.73;;
32038;SDS011;18549;42.286;22.688;2023-04-03T03:42:17;29.13;;;11.77;;
32038;SDS011;18549;42.286;22.688;2023-04-03T03:44:44;22.30;;;12.80;;
32038;SDS011;18549;42.286;22.688;2023-04-03T03:47:11;22.47;;;12.63;;
32038;SDS011;18549;42.286;22.688;2023-04-03T03:49:39;27.40;;;12.67;;
32038;SDS011;18549;42.286;22.688;2023-04-03T03:52:07;33.33;;;18.73;;
32038;SDS011;18549;42.286;22.688;2023-04-03T03:54:35;32.45;;;18.35;;
32038;SDS011;18549;42.286;22.688;2023-04-03T03:57:02;40.00;;;20.43;;
32038;SDS011;18549;42.286;22.688;2023-04-03T03:59:29;39.27;;;20.23;;
32038;SDS011;18549;42.286;22.688;2023-04-03T04:01:56;40.60;;;22.23;;
32038;SDS011;18549;42.286;22.688;2023-04-03T04:04:23;39.10;;;19.60;;
32038;SDS011;18549;42.286;22.688;2023-04-03T04:06:51;27.93;;;14.33;;
32038;SDS011;18549;42.286;22.688;2023-04-03T04:09:17;32.23;;;12.97;;
32038;SDS011;18549;42.286;22.688;2023-04-03T04:11:44;21.07;;;12.77;;
32038;SDS011;18549;42.286;22.688;2023-04-03T04:14:11;29.60;;;16.40;;
32038;SDS011;18549;42.286;22.688;2023-04-03T04:16:38;32.20;;;17.77;;
32038;SDS011;18549;42.286;22.688;2023-04-03T04:19:05;22.60;;;14.93;;
32038;SDS011;18549;42.286;22.688;2023-04-03T04:21:33;29.27;;;15.63;;
32038;SDS011;18549;42.286;22.688;2023-04-03T04:24:01;26.87;;;15.77;;
32038;SDS011;18549;42.286;22.688;2023-04-03T04:26:28;29.73;;;14.53;;
32038;SDS011;18549;42.286;22.688;2023-04-03T04:28:55;33.20;;;15.00;;
32038;SDS011;18549;42.286;22.688;2023-04-03T04:31:22;22.20;;;13.57;;
32038;SDS011;18549;42.286;22.688;2023-04-03T04:33:49;32.10;;;13.73;;
32038;SDS011;18549;42.286;22.688;2023-04-03T04:36:16;31.03;;;13.37;;
32038;SDS011;18549;42.286;22.688;2023-04-03T04:38:43;44.10;;;19.77;;
32038;SDS011;18549;42.286;22.688;2023-04-03T04:41:11;73.67;;;30.93;;
32038;SDS011;18549;42.286;22.688;2023-04-03T04:43:38;110.87;;;45.77;;
32038;SDS011;18549;42.286;22.688;2023-04-03T04:46:05;173.83;;;80.87;;
32038;SDS011;18549;42.286;22.688;2023-04-03T04:48:34;142.63;;;70.13;;
32038;SDS011;18549;42.286;22.688;2023-04-03T04:51:01;110.80;;;57.33;;
32038;SDS011;18549;42.286;22.688;2023-04-03T04:53:28;102.20;;;52.60;;
32038;SDS011;18549;42.286;22.688;2023-04-03T04:55:55;134.43;;;69.37;;
32038;SDS011;18549;42.286;22.688;2023-04-03T04:58:24;131.10;;;66.23;;
32038;SDS011;18549;42.286;22.688;2023-04-03T05:00:58;107.33;;;67.13;;
32038;SDS011;18549;42.286;22.688;2023-04-03T05:03:25;97.53;;;50.23;;
32038;SDS011;18549;42.286;22.688;2023-04-03T05:05:52;79.10;;;41.23;;
32038;SDS011;18549;42.286;22.688;2023-04-03T05:08:19;79.23;;;42.27;;
32038;SDS011;18549;42.286;22.688;2023-04-03T05:10:45;80.67;;;38.93;;
32038;SDS011;18549;42.286;22.688;2023-04-03T05:13:12;87.77;;;44.50;;
32038;SDS011;18549;42.286;22.688;2023-04-03T05:15:42;37.30;;;21.37;;
32038;SDS011;18549;42.286;22.688;2023-04-03T05:18:09;41.80;;;22.23;;
32038;SDS011;18549;42.286;22.688;2023-04-03T05:20:35;53.93;;;29.17;;
32038;SDS011;18549;42.286;22.688;2023-04-03T05:23:03;42.37;;;23.53;;
32038;SDS011;18549;42.286;22.688;2023-04-03T05:25:31;53.53;;;23.40;;
32038;SDS011;18549;42.286;22.688;2023-04-03T05:27:58;46.77;;;26.43;;
32038;SDS011;18549;42.286;22.688;2023-04-03T05:30:25;60.93;;;32.67;;
32038;SDS011;18549;42.286;22.688;2023-04-03T05:32:53;51.47;;;27.53;;
32038;SDS011;18549;42.286;22.688;2023-04-03T05:35:20;48.60;;;27.00;;
32038;SDS011;18549;42.286;22.688;2023-04-03T05:37:48;54.57;;;28.20;;
32038;SDS011;18549;42.286;22.688;2023-04-03T05:40:15;47.70;;;24.47;;
32038;SDS011;18549;42.286;22.688;2023-04-03T05:42:41;91.40;;;46.83;;
32038;SDS011;18549;42.286;22.688;2023-04-03T05:45:09;58.37;;;33.50;;
32038;SDS011;18549;42.286;22.688;2023-04-03T05:47:36;132.80;;;73.23;;
32038;SDS011;18549;42.286;22.688;2023-04-03T05:50:05;90.40;;;50.53;;
32038;SDS011;18549;42.286;22.688;2023-04-03T05:52:33;79.87;;;43.13;;
32038;SDS011;18549;42.286;22.688;2023-04-03T05:55:02;61.07;;;36.80;;
32038;SDS011;18549;42.286;22.688;2023-04-03T05:57:30;48.77;;;32.93;;
32038;SDS011;18549;42.286;22.688;2023-04-03T05:59:56;55.07;;;29.33;;
32038;SDS011;18549;42.286;22.688;2023-04-03T06:02:23;59.63;;;31.03;;
32038;SDS011;18549;42.286;22.688;2023-04-03T06:04:51;58.97;;;33.07;;
32038;SDS011;18549;42.286;22.688;2023-04-03T06:07:21;85.27;;;53.40;;
32038;SDS011;18549;42.286;22.688;2023-04-03T06:09:49;76.07;;;39.63;;
32038;SDS011;18549;42.286;22.688;2023-04-03T06:12:17;60.03;;;33.03;;
32038;SDS011;18549;42.286;22.688;2023-04-03T06:14:45;53.13;;;32.47;;
32038;SDS011;18549;42.286;22.688;2023-04-03T06:17:14;78.70;;;46.90;;
32038;SDS011;18549;42.286;22.688;2023-04-03T06:19:42;55.80;;;31.77;;
32038;SDS011;18549;42.286;22.688;2023-04-03T06:22:09;62.10;;;34.90;;
32038;SDS011;18549;42.286;22.688;2023-04-03T06:24:39;56.70;;;34.17;;
32038;SDS011;18549;42.286;22.688;2023-04-03T06:27:05;67.40;;;38.40;;
32038;SDS011;18549;42.286;22.688;2023-04-03T06:29:32;68.40;;;34.73;;
32038;SDS011;18549;42.286;22.688;2023-04-03T06:31:59;73.87;;;31.97;;
32038;SDS011;18549;42.286;22.688;2023-04-03T06:34:26;56.40;;;28.30;;
32038;SDS011;18549;42.286;22.688;2023-04-03T06:36:52;58.30;;;36.37;;
32038;SDS011;18549;42.286;22.688;2023-04-03T06:39:20;47.43;;;27.97;;
32038;SDS011;18549;42.286;22.688;2023-04-03T06:41:49;44.70;;;23.57;;
32038;SDS011;18549;42.286;22.688;2023-04-03T06:44:17;33.50;;;23.20;;
32038;SDS011;18549;42.286;22.688;2023-04-03T06:46:44;96.17;;;33.97;;
32038;SDS011;18549;42.286;22.688;2023-04-03T06:49:11;43.17;;;20.00;;
32038;SDS011;18549;42.286;22.688;2023-04-03T06:51:39;28.20;;;13.97;;
32038;SDS011;18549;42.286;22.688;2023-04-03T06:54:06;34.70;;;16.73;;
32038;SDS011;18549;42.286;22.688;2023-04-03T06:56:33;41.23;;;16.60;;
32038;SDS011;18549;42.286;22.688;2023-04-03T06:59:01;31.43;;;18.07;;
32038;SDS011;18549;42.286;22.688;2023-04-03T07:01:28;38.00;;;16.93;;
32038;SDS011;18549;42.286;22.688;2023-04-03T07:03:56;53.80;;;18.73;;
32038;SDS011;18549;42.286;22.688;2023-04-03T07:06:23;38.23;;;19.63;;
32038;SDS011;18549;42.286;22.688;2023-04-03T07:08:51;39.77;;;21.93;;
32038;SDS011;18549;42.286;22.688;2023-04-03T07:11:19;43.73;;;22.07;;
32038;SDS011;18549;42.286;22.688;2023-04-03T07:13:46;54.70;;;25.43;;
32038;SDS011;18549;42.286;22.688;2023-04-03T07:16:15;46.50;;;26.63;;
32038;SDS011;18549;42.286;22.688;2023-04-03T07:18:42;64.80;;;33.77;;
32038;SDS011;18549;42.286;22.688;2023-04-03T07:21:09;76.73;;;37.80;;
32038;SDS011;18549;42.286;22.688;2023-04-03T07:23:36;87.23;;;43.00;;
32038;SDS011;18549;42.286;22.688;2023-04-03T07:26:03;80.00;;;42.80;;
32038;SDS011;18549;42.286;22.688;2023-04-03T07:28:30;90.07;;;47.70;;
32038;SDS011;18549;42.286;22.688;2023-04-03T07:30:59;114.13;;;49.47;;
32038;SDS011;18549;42.286;22.688;2023-04-03T07:33:30;102.47;;;50.37;;
32038;SDS011;18549;42.286;22.688;2023-04-03T07:35:57;100.73;;;49.23;;
32038;SDS011;18549;42.286;22.688;2023-04-03T07:38:25;93.63;;;51.13;;
32038;SDS011;18549;42.286;22.688;2023-04-03T07:40:52;96.67;;;49.57;;
32038;SDS011;18549;42.286;22.688;2023-04-03T07:43:20;105.23;;;56.77;;
32038;SDS011;18549;42.286;22.688;2023-04-03T07:45:48;94.90;;;53.63;;
32038;SDS011;18549;42.286;22.688;2023-04-03T07:48:16;92.53;;;51.63;;
32038;SDS011;18549;42.286;22.688;2023-04-03T07:50:45;80.40;;;43.67;;
32038;SDS011;18549;42.286;22.688;2023-04-03T07:53:13;74.23;;;44.97;;
32038;SDS011;18549;42.286;22.688;2023-04-03T07:55:40;83.30;;;42.47;;
32038;SDS011;18549;42.286;22.688;2023-04-03T07:58:09;31.27;;;20.30;;
32038;SDS011;18549;42.286;22.688;2023-04-03T08:00:37;28.37;;;17.77;;
32038;SDS011;18549;42.286;22.688;2023-04-03T08:03:04;34.00;;;18.20;;
32038;SDS011;18549;42.286;22.688;2023-04-03T08:05:36;23.23;;;13.57;;
32038;SDS011;18549;42.286;22.688;2023-04-03T08:08:05;27.37;;;14.57;;
32038;SDS011;18549;42.286;22.688;2023-04-03T08:10:32;26.57;;;14.20;;
32038;SDS011;18549;42.286;22.688;2023-04-03T08:13:00;12.97;;;8.80;;
32038;SDS011;18549;42.286;22.688;2023-04-03T08:15:27;15.60;;;9.27;;
32038;SDS011;18549;42.286;22.688;2023-04-03T08:17:54;11.47;;;4.87;;
32038;SDS011;18549;42.286;22.688;2023-04-03T08:20:21;8.27;;;4.03;;
32038;SDS011;18549;42.286;22.688;2023-04-03T08:22:47;9.73;;;3.97;;
32038;SDS011;18549;42.286;22.688;2023-04-03T08:25:17;10.20;;;6.57;;
32038;SDS011;18549;42.286;22.688;2023-04-03T08:27:44;17.13;;;9.30;;
32038;SDS011;18549;42.286;22.688;2023-04-03T08:30:11;29.80;;;19.07;;
32038;SDS011;18549;42.286;22.688;2023-04-03T08:32:39;10.60;;;7.00;;
32038;SDS011;18549;42.286;22.688;2023-04-03T08:35:07;2.17;;;1.60;;
32038;SDS011;18549;42.286;22.688;2023-04-03T08:37:35;2.07;;;1.30;;
32038;SDS011;18549;42.286;22.688;2023-04-03T08:40:02;4.50;;;1.77;;
32038;SDS011;18549;42.286;22.688;2023-04-03T08:42:35;7.37;;;4.70;;
32038;SDS011;18549;42.286;22.688;2023-04-03T08:45:09;39.43;;;23.43;;
32038;SDS011;18549;42.286;22.688;2023-04-03T08:47:40;6.03;;;2.83;;
32038;SDS011;18549;42.286;22.688;2023-04-03T08:50:12;5.33;;;3.80;;
32038;SDS011;18549;42.286;22.688;2023-04-03T08:52:44;11.73;;;6.93;;
32038;SDS011;18549;42.286;22.688;2023-04-03T08:55:16;7.10;;;4.73;;
32038;SDS011;18549;42.286;22.688;2023-04-03T08:57:53;6.53;;;3.73;;
32038;SDS011;18549;42.286;22.688;2023-04-03T09:00:27;30.40;;;16.63;;
32038;SDS011;18549;42.286;22.688;2023-04-03T09:02:57;14.37;;;9.40;;
32038;SDS011;18549;42.286;22.688;2023-04-03T09:05:29;5.70;;;4.30;;
32038;SDS011;18549;42.286;22.688;2023-04-03T09:08:04;3.40;;;2.20;;
32038;SDS011;18549;42.286;22.688;2023-04-03T09:10:34;2.43;;;1.50;;
32038;SDS011;18549;42.286;22.688;2023-04-03T09:13:08;5.53;;;2.10;;
32038;SDS011;18549;42.286;22.688;2023-04-03T09:15:39;1.63;;;1.43;;
32038;SDS011;18549;42.286;22.688;2023-04-03T09:18:10;4.63;;;1.80;;
32038;SDS011;18549;42.286;22.688;2023-04-03T09:20:43;3.00;;;2.07;;
32038;SDS011;18549;42.286;22.688;2023-04-03T09:23:21;3.50;;;1.57;;
32038;SDS011;18549;42.286;22.688;2023-04-03T09:25:52;2.60;;;2.07;;
32038;SDS011;18549;42.286;22.688;2023-04-03T09:28:25;4.23;;;1.90;;
32038;SDS011;18549;42.286;22.688;2023-04-03T09:30:53;4.93;;;2.37;;
32038;SDS011;18549;42.286;22.688;2023-04-03T09:33:20;2.77;;;1.73;;
32038;SDS011;18549;42.286;22.688;2023-04-03T09:35:47;2.70;;;1.70;;
32038;SDS011;18549;42.286;22.688;2023-04-03T09:38:17;2.40;;;1.70;;
32038;SDS011;18549;42.286;22.688;2023-04-03T09:40:46;3.27;;;2.57;;
32038;SDS011;18549;42.286;22.688;2023-04-03T09:43:22;2.40;;;1.50;;
32038;SDS011;18549;42.286;22.688;2023-04-03T09:45:55;3.43;;;1.43;;
32038;SDS011;18549;42.286;22.688;2023-04-03T09:48:47;5.18;;;1.95;;
32038;SDS011;18549;42.286;22.688;2023-04-03T09:51:16;6.37;;;3.70;;
32038;SDS011;18549;42.286;22.688;2023-04-03T09:53:44;4.10;;;2.50;;
32038;SDS011;18549;42.286;22.688;2023-04-03T09:56:18;4.47;;;1.77;;
32038;SDS011;18549;42.286;22.688;2023-04-03T09:58:50;10.40;;;7.20;;
32038;SDS011;18549;42.286;22.688;2023-04-03T10:01:23;4.73;;;2.83;;
32038;SDS011;18549;42.286;22.688;2023-04-03T10:04:02;6.10;;;3.77;;
32038;SDS011;18549;42.286;22.688;2023-04-03T10:06:33;7.17;;;4.47;;
32038;SDS011;18549;42.286;22.688;2023-04-03T10:09:02;3.27;;;2.03;;
32038;SDS011;18549;42.286;22.688;2023-04-03T10:11:32;3.83;;;2.30;;
32038;SDS011;18549;42.286;22.688;2023-04-03T10:14:01;11.73;;;5.13;;
32038;SDS011;18549;42.286;22.688;2023-04-03T10:16:32;6.47;;;3.43;;
32038;SDS011;18549;42.286;22.688;2023-04-03T10:19:14;9.70;;;5.23;;
32038;SDS011;18549;42.286;22.688;2023-04-03T10:21:57;2.73;;;2.00;;
32038;SDS011;18549;42.286;22.688;2023-04-03T10:24:28;5.33;;;3.33;;
32038;SDS011;18549;42.286;22.688;2023-04-03T10:27:03;13.73;;;7.43;;
32038;SDS011;18549;42.286;22.688;2023-04-03T10:29:42;2.20;;;1.83;;
32038;SDS011;18549;42.286;22.688;2023-04-03T10:32:23;2.80;;;1.73;;
32038;SDS011;18549;42.286;22.688;2023-04-03T10:35:02;3.90;;;2.33;;
32038;SDS011;18549;42.286;22.688;2023-04-03T10:37:40;3.47;;;1.90;;
32038;SDS011;18549;42.286;22.688;2023-04-03T10:40:22;5.47;;;1.67;;
32038;SDS011;18549;42.286;22.688;2023-04-03T10:42:58;4.40;;;2.07;;
32038;SDS011;18549;42.286;22.688;2023-04-03T10:45:40;3.93;;;2.33;;
32038;SDS011;18549;42.286;22.688;2023-04-03T10:48:16;8.00;;;3.20;;
32038;SDS011;18549;42.286;22.688;2023-04-03T10:50:51;12.80;;;5.27;;
32038;SDS011;18549;42.286;22.688;2023-04-03T10:53:25;10.07;;;6.73;;
32038;SDS011;18549;42.286;22.688;2023-04-03T10:56:01;8.77;;;6.47;;
32038;SDS011;18549;42.286;22.688;2023-04-03T10:58:33;8.50;;;5.63;;
32038;SDS011;18549;42.286;22.688;2023-04-03T11:01:05;5.97;;;3.97;;
32038;SDS011;18549;42.286;22.688;2023-04-03T11:03:35;5.53;;;3.63;;
32038;SDS011;18549;42.286;22.688;2023-04-03T11:06:07;3.53;;;2.80;;
32038;SDS011;18549;42.286;22.688;2023-04-03T11:08:39;16.73;;;8.47;;
32038;SDS011;18549;42.286;22.688;2023-04-03T11:11:11;7.57;;;3.27;;
32038;SDS011;18549;42.286;22.688;2023-04-03T11:13:43;11.60;;;4.90;;
32038;SDS011;18549;42.286;22.688;2023-04-03T11:16:19;5.47;;;2.77;;
32038;SDS011;18549;42.286;22.688;2023-04-03T11:18:51;5.65;;;2.97;;
32038;SDS011;18549;42.286;22.688;2023-04-03T11:21:22;8.87;;;4.83;;
32038;SDS011;18549;42.286;22.688;2023-04-03T11:23:54;14.60;;;4.70;;
32038;SDS011;18549;42.286;22.688;2023-04-03T11:26:24;14.63;;;7.63;;
32038;SDS011;18549;42.286;22.688;2023-04-03T11:28:56;12.00;;;7.33;;
32038;SDS011;18549;42.286;22.688;2023-04-03T11:31:29;43.27;;;21.30;;
32038;SDS011;18549;42.286;22.688;2023-04-03T11:34:13;65.33;;;27.03;;
32038;SDS011;18549;42.286;22.688;2023-04-03T11:36:48;17.60;;;8.50;;
32038;SDS011;18549;42.286;22.688;2023-04-03T11:39:19;29.47;;;13.33;;
32038;SDS011;18549;42.286;22.688;2023-04-03T11:41:51;15.53;;;9.40;;
32038;SDS011;18549;42.286;22.688;2023-04-03T11:44:32;17.27;;;10.33;;
32038;SDS011;18549;42.286;22.688;2023-04-03T11:47:04;17.00;;;10.27;;
32038;SDS011;18549;42.286;22.688;2023-04-03T11:58:27;18.23;;;11.27;;
32038;SDS011;18549;42.286;22.688;2023-04-03T12:01:04;20.00;;;13.00;;
32038;SDS011;18549;42.286;22.688;2023-04-03T12:12:42;29.93;;;19.97;;
32038;SDS011;18549;42.286;22.688;2023-04-03T12:21:17;19.47;;;12.53;;
32038;SDS011;18549;42.286;22.688;2023-04-03T12:24:04;19.53;;;12.17;;
32038;SDS011;18549;42.286;22.688;2023-04-03T12:26:50;22.20;;;12.47;;
32038;SDS011;18549;42.286;22.688;2023-04-03T12:29:29;22.07;;;13.13;;
32038;SDS011;18549;42.286;22.688;2023-04-03T12:32:06;23.87;;;13.80;;
32038;SDS011;18549;42.286;22.688;2023-04-03T12:34:42;26.33;;;15.93;;
32038;SDS011;18549;42.286;22.688;2023-04-03T12:37:20;21.47;;;14.67;;
32038;SDS011;18549;42.286;22.688;2023-04-03T12:40:01;23.13;;;16.30;;
32038;SDS011;18549;42.286;22.688;2023-04-03T12:42:47;19.07;;;14.53;;
32038;SDS011;18549;42.286;22.688;2023-04-03T12:45:29;20.57;;;13.43;;
32038;SDS011;18549;42.286;22.688;2023-04-03T12:48:08;27.03;;;15.90;;
32038;SDS011;18549;42.286;22.688;2023-04-03T12:50:41;21.90;;;15.10;;
32038;SDS011;18549;42.286;22.688;2023-04-03T12:53:11;22.90;;;16.50;;
32038;SDS011;18549;42.286;22.688;2023-04-03T12:55:41;18.23;;;12.47;;
32038;SDS011;18549;42.286;22.688;2023-04-03T12:58:15;15.23;;;11.27;;
32038;SDS011;18549;42.286;22.688;2023-04-03T13:00:43;16.57;;;11.03;;
32038;SDS011;18549;42.286;22.688;2023-04-03T13:03:19;17.27;;;13.40;;
32038;SDS011;18549;42.286;22.688;2023-04-03T13:05:49;19.73;;;11.17;;
32038;SDS011;18549;42.286;22.688;2023-04-03T13:08:16;22.77;;;14.67;;
32038;SDS011;18549;42.286;22.688;2023-04-03T13:10:51;26.83;;;16.97;;
32038;SDS011;18549;42.286;22.688;2023-04-03T13:13:21;21.90;;;14.97;;
32038;SDS011;18549;42.286;22.688;2023-04-03T13:15:49;22.10;;;13.60;;
32038;SDS011;18549;42.286;22.688;2023-04-03T13:18:21;23.53;;;13.80;;
32038;SDS011;18549;42.286;22.688;2023-04-03T13:20:53;23.30;;;15.13;;
32038;SDS011;18549;42.286;22.688;2023-04-03T13:23:26;24.80;;;12.83;;
32038;SDS011;18549;42.286;22.688;2023-04-03T13:25:54;29.83;;;17.93;;
32038;SDS011;18549;42.286;22.688;2023-04-03T13:28:26;25.37;;;16.17;;
32038;SDS011;18549;42.286;22.688;2023-04-03T13:30:55;24.97;;;15.87;;
32038;SDS011;18549;42.286;22.688;2023-04-03T13:33:28;14.00;;;9.47;;
32038;SDS011;18549;42.286;22.688;2023-04-03T13:35:58;80.00;;;43.90;;
32038;SDS011;18549;42.286;22.688;2023-04-03T13:38:29;31.63;;;22.57;;
32038;SDS011;18549;42.286;22.688;2023-04-03T13:41:00;48.97;;;31.20;;
32038;SDS011;18549;42.286;22.688;2023-04-03T13:43:30;29.70;;;19.27;;
32038;SDS011;18549;42.286;22.688;2023-04-03T13:46:00;23.70;;;17.33;;
32038;SDS011;18549;42.286;22.688;2023-04-03T13:48:35;25.27;;;16.63;;
32038;SDS011;18549;42.286;22.688;2023-04-03T13:51:04;26.73;;;17.77;;
32038;SDS011;18549;42.286;22.688;2023-04-03T13:53:33;41.80;;;28.07;;
32038;SDS011;18549;42.286;22.688;2023-04-03T13:56:13;32.17;;;17.90;;
32038;SDS011;18549;42.286;22.688;2023-04-03T13:58:52;24.70;;;17.20;;
32038;SDS011;18549;42.286;22.688;2023-04-03T14:01:24;23.07;;;15.90;;
32038;SDS011;18549;42.286;22.688;2023-04-03T14:03:53;20.23;;;11.53;;
32038;SDS011;18549;42.286;22.688;2023-04-03T14:06:22;18.40;;;13.80;;
32038;SDS011;18549;42.286;22.688;2023-04-03T14:08:49;18.73;;;14.80;;
32038;SDS011;18549;42.286;22.688;2023-04-03T14:11:20;20.80;;;14.97;;
32038;SDS011;18549;42.286;22.688;2023-04-03T14:13:49;13.93;;;9.50;;
32038;SDS011;18549;42.286;22.688;2023-04-03T14:16:18;24.53;;;14.87;;
32038;SDS011;18549;42.286;22.688;2023-04-03T14:18:46;18.50;;;12.97;;
32038;SDS011;18549;42.286;22.688;2023-04-03T14:21:15;14.50;;;10.67;;
32038;SDS011;18549;42.286;22.688;2023-04-03T14:23:43;10.93;;;8.30;;
32038;SDS011;18549;42.286;22.688;2023-04-03T14:26:12;9.87;;;7.80;;
32038;SDS011;18549;42.286;22.688;2023-04-03T14:28:42;28.63;;;16.13;;
32038;SDS011;18549;42.286;22.688;2023-04-03T14:31:10;57.93;;;31.13;;
32038;SDS011;18549;42.286;22.688;2023-04-03T14:33:38;65.73;;;39.90;;
32038;SDS011;18549;42.286;22.688;2023-04-03T14:36:09;46.33;;;24.00;;
32038;SDS011;18549;42.286;22.688;2023-04-03T14:38:39;17.27;;;11.93;;
32038;SDS011;18549;42.286;22.688;2023-04-03T14:41:06;17.23;;;9.60;;
32038;SDS011;18549;42.286;22.688;2023-04-03T14:43:33;7.00;;;4.90;;
32038;SDS011;18549;42.286;22.688;2023-04-03T14:46:02;6.73;;;5.13;;
32038;SDS011;18549;42.286;22.688;2023-04-03T14:48:28;11.77;;;8.50;;
32038;SDS011;18549;42.286;22.688;2023-04-03T14:50:56;9.13;;;6.10;;
32038;SDS011;18549;42.286;22.688;2023-04-03T14:53:23;12.20;;;7.37;;
32038;SDS011;18549;42.286;22.688;2023-04-03T14:55:51;11.57;;;7.87;;
32038;SDS011;18549;42.286;22.688;2023-04-03T14:58:19;40.47;;;18.50;;
32038;SDS011;18549;42.286;22.688;2023-04-03T15:00:47;21.97;;;12.17;;